Time;durP1;ratioP1;P1;durP2;ratioP2;P2;SDS_P1;SDS_P2;PMS_P1;PMS_P2;Temp;Humidity;BMP_temperature;BMP_pressure;BME280_temperature;BME280_humidity;BME280_pressure;Samples;Min_cycle;Max_cycle;Signal;HPM_P1;HPM_P2
2021/12/03 00:00:40;;;;;;;17.85;6.95;;;;;;;9.86;48.21;100925.19;5042500;28;20029;-57
2021/12/03 00:03:07;;;;;;;15.95;8.02;;;;;;;9.85;48.25;100917.31;5043252;28;20025;-57
2021/12/03 00:05:33;;;;;;;15.48;7.40;;;;;;;9.83;48.72;100920.09;5049523;28;20033;-57
2021/12/03 00:07:58;;;;;;;12.35;7.15;;;;;;;9.82;48.29;100923.75;5053826;28;20091;-57
2021/12/03 00:10:26;;;;;;;19.13;6.95;;;;;;;9.81;48.91;100919.38;5054832;28;20060;-57
2021/12/03 00:12:52;;;;;;;15.18;6.30;;;;;;;9.82;48.58;100913.06;5054740;28;20477;-57
2021/12/03 00:15:18;;;;;;;23.92;6.70;;;;;;;9.82;47.92;100909.53;5054543;28;20103;-57
2021/12/03 00:17:43;;;;;;;14.13;6.70;;;;;;;9.81;48.53;100916.69;5054556;28;20110;-57
2021/12/03 00:20:13;;;;;;;19.80;6.65;;;;;;;9.80;49.01;100901.59;5054629;28;20493;-57
2021/12/03 00:22:39;;;;;;;19.15;7.55;;;;;;;9.76;48.10;100893.97;5054395;28;20032;-57
2021/12/03 00:25:05;;;;;;;18.77;8.32;;;;;;;9.74;48.80;100909.28;5054273;28;20048;-57
2021/12/03 00:27:30;;;;;;;19.30;7.47;;;;;;;9.73;48.03;100897.72;5054601;28;20059;-57
2021/12/03 00:29:56;;;;;;;16.38;6.28;;;;;;;9.75;48.26;100906.47;5054378;28;20378;-56
2021/12/03 00:32:21;;;;;;;17.98;7.82;;;;;;;9.75;48.82;100911.81;5052931;28;20032;-57
2021/12/03 00:34:46;;;;;;;18.67;7.40;;;;;;;9.71;48.62;100905.03;5054184;28;20036;-57
2021/12/03 00:37:12;;;;;;;20.50;6.45;;;;;;;9.72;48.73;100898.69;5054171;28;20064;-57
2021/12/03 00:39:37;;;;;;;20.33;6.85;;;;;;;9.74;48.80;100911.97;5054278;28;20111;-57
2021/12/03 00:42:04;;;;;;;17.92;7.13;;;;;;;9.73;48.95;100913.78;5049205;28;20040;-57
2021/12/03 00:44:30;;;;;;;16.25;7.28;;;;;;;9.74;48.27;100928.84;5054272;28;20032;-57
2021/12/03 00:46:57;;;;;;;20.40;7.55;;;;;;;9.73;48.81;100923.63;5040727;28;20029;-56
2021/12/03 00:49:23;;;;;;;17.08;7.72;;;;;;;9.71;48.63;100929.09;5033862;28;20393;-57
2021/12/03 00:51:48;;;;;;;15.15;6.70;;;;;;;9.72;48.93;100925.44;5033990;28;20108;-57
2021/12/03 00:54:14;;;;;;;14.23;7.05;;;;;;;9.73;48.67;100924.47;5049590;28;20474;-56
2021/12/03 00:56:40;;;;;;;16.70;7.07;;;;;;;9.73;48.35;100934.31;5052723;28;20021;-57
2021/12/03 00:59:05;;;;;;;12.25;7.13;;;;;;;9.74;48.76;100936.84;5053645;28;20474;-57
2021/12/03 01:01:31;;;;;;;20.25;7.13;;;;;;;9.74;48.85;100938.72;5053748;28;20089;-57
2021/12/03 01:03:57;;;;;;;14.77;6.53;;;;;;;9.72;48.58;100933.47;5053679;28;20378;-57
2021/12/03 01:06:22;;;;;;;16.05;5.90;;;;;;;9.73;49.14;100940.53;5053690;28;20027;-57
2021/12/03 01:08:48;;;;;;;14.82;6.03;;;;;;;9.74;48.80;100936.84;5052350;28;20428;-57
2021/12/03 01:11:14;;;;;;;21.08;6.72;;;;;;;9.71;49.03;100931.78;5053684;28;20024;-57
2021/12/03 01:13:40;;;;;;;12.55;5.35;;;;;;;9.76;49.24;100939.44;5035172;28;20029;-57
2021/12/03 01:16:07;;;;;;;11.35;5.72;;;;;;;9.76;49.04;100940.28;5033685;28;20033;-57
2021/12/03 01:18:32;;;;;;;15.82;6.28;;;;;;;9.77;48.44;100936.63;5033689;28;20030;-57
2021/12/03 01:20:58;;;;;;;16.20;5.50;;;;;;;9.81;49.35;100942.59;5033991;28;20117;-57
2021/12/03 01:23:23;;;;;;;12.18;4.88;;;;;;;9.81;49.05;100934.56;5015762;28;20022;-57
2021/12/03 01:25:49;;;;;;;20.95;5.90;;;;;;;9.83;48.56;100940.63;5016093;28;20025;-57
2021/12/03 01:28:15;;;;;;;14.70;5.88;;;;;;;9.81;49.39;100922.03;5033401;28;20437;-57
2021/12/03 01:30:41;;;;;;;12.52;6.20;;;;;;;9.87;48.88;100942.97;5033658;28;20363;-57
2021/12/03 01:33:07;;;;;;;13.73;5.65;;;;;;;9.84;49.46;100937.84;5033619;28;20022;-57
2021/12/03 01:35:34;;;;;;;13.93;5.50;;;;;;;9.84;48.81;100940.53;5033449;28;20041;-57
2021/12/03 01:38:00;;;;;;;13.00;5.80;;;;;;;9.90;48.89;100953.41;5033391;28;20131;-57
2021/12/03 01:40:27;;;;;;;13.02;5.60;;;;;;;9.90;48.88;100952.56;5033481;28;20025;-57
2021/12/03 01:42:52;;;;;;;8.20;5.07;;;;;;;9.91;48.76;100955.09;5032093;28;20029;-57
2021/12/03 01:45:22;;;;;;;15.98;5.35;;;;;;;9.92;48.93;100956.81;5032244;28;20038;-57
2021/12/03 01:47:48;;;;;;;10.52;5.28;;;;;;;9.96;49.11;100960.09;5033480;28;20084;-57
2021/12/03 01:50:14;;;;;;;11.88;5.47;;;;;;;10.00;48.78;100963.38;5033363;28;20028;-57
2021/12/03 01:52:40;;;;;;;11.50;5.18;;;;;;;10.01;49.22;100960.59;5033302;28;20032;-57
2021/12/03 01:55:07;;;;;;;11.05;5.30;;;;;;;10.02;48.56;100961.44;5033033;28;20026;-57
2021/12/03 01:57:33;;;;;;;9.20;5.35;;;;;;;10.05;49.24;100951.31;5038020;28;20025;-57
2021/12/03 01:59:58;;;;;;;8.75;4.60;;;;;;;10.06;48.28;100950.34;5053329;28;20052;-57
2021/12/03 02:02:24;;;;;;;9.27;4.32;;;;;;;10.05;48.87;100945.16;5053509;28;20032;-57
2021/12/03 02:04:49;;;;;;;10.70;4.60;;;;;;;10.03;48.97;100942.56;5035273;28;20059;-57
2021/12/03 02:07:15;;;;;;;8.38;4.65;;;;;;;10.03;49.08;100941.72;5053068;28;20104;-57
2021/12/03 02:09:40;;;;;;;8.63;5.05;;;;;;;9.99;48.70;100940.28;5045677;28;20505;-57
2021/12/03 02:12:06;;;;;;;9.32;4.72;;;;;;;9.95;48.74;100929.81;5034351;28;20021;-56
2021/12/03 02:14:31;;;;;;;9.60;4.30;;;;;;;9.96;48.61;100928.00;5036877;28;20021;-57
2021/12/03 02:16:57;;;;;;;7.65;4.18;;;;;;;9.93;48.76;100926.41;5036950;28;20056;-57
2021/12/03 02:19:22;;;;;;;9.50;4.22;;;;;;;9.92;48.75;100938.09;5036878;28;20029;-56
2021/12/03 02:21:47;;;;;;;8.70;3.90;;;;;;;9.87;48.43;100937.59;5036730;28;20104;-57
2021/12/03 02:24:14;;;;;;;9.05;4.82;;;;;;;9.83;49.08;100941.47;5036918;28;20427;-57
2021/12/03 02:26:41;;;;;;;10.02;4.80;;;;;;;9.81;48.92;100932.75;5036564;28;20025;-57
2021/12/03 02:29:07;;;;;;;11.57;4.80;;;;;;;9.80;48.77;100936.38;5036721;28;20101;-57
2021/12/03 02:31:32;;;;;;;8.00;4.40;;;;;;;9.79;48.64;100934.69;5035356;28;20559;-57
2021/12/03 02:33:58;;;;;;;10.00;4.10;;;;;;;9.80;48.43;100939.06;5036562;28;20021;-57
2021/12/03 02:36:23;;;;;;;11.65;4.75;;;;;;;9.79;48.73;100940.03;5036398;28;20079;-57
2021/12/03 02:38:49;;;;;;;10.27;4.10;;;;;;;9.78;48.30;100938.34;5036291;28;20524;-57
2021/12/03 02:41:14;;;;;;;12.43;4.57;;;;;;;9.79;49.40;100939.19;5036556;28;20092;-57
2021/12/03 02:43:40;;;;;;;11.75;5.55;;;;;;;9.78;48.84;100943.69;5036373;28;20071;-57
2021/12/03 02:46:05;;;;;;;15.25;6.45;;;;;;;9.78;48.91;100943.69;5036777;28;20095;-57
2021/12/03 02:48:32;;;;;;;14.27;5.78;;;;;;;9.81;48.90;100953.28;5035061;28;20474;-57
2021/12/03 02:50:58;;;;;;;12.45;6.10;;;;;;;9.77;48.85;100955.34;5035140;28;20017;-57
2021/12/03 02:53:24;;;;;;;14.05;5.78;;;;;;;9.82;49.70;100955.00;5036234;28;20040;-57
2021/12/03 02:55:50;;;;;;;14.63;6.45;;;;;;;9.84;49.70;100953.03;5034976;28;20466;-57
2021/12/03 02:58:15;;;;;;;15.13;6.13;;;;;;;9.84;49.40;100942.34;5036079;28;20025;-57
2021/12/03 03:00:42;;;;;;;13.27;6.50;;;;;;;9.86;49.35;100946.59;5036101;28;20056;-57
2021/12/03 03:03:07;;;;;;;13.10;6.78;;;;;;;9.83;49.20;100946.84;5034845;28;20067;-57
2021/12/03 03:05:33;;;;;;;16.27;7.43;;;;;;;9.85;49.49;100952.09;5036030;28;20065;-57
2021/12/03 03:07:58;;;;;;;18.65;6.35;;;;;;;9.86;49.29;100951.94;5036050;28;20116;-57
2021/12/03 03:10:28;;;;;;;16.10;6.38;;;;;;;9.90;49.62;100953.41;5035885;28;20104;-57
2021/12/03 03:12:54;;;;;;;19.30;7.88;;;;;;;9.91;50.01;100943.53;5035914;28;20024;-57
2021/12/03 03:15:21;;;;;;;17.30;7.20;;;;;;;9.94;49.47;100930.78;5035865;28;20025;-57
2021/12/03 03:17:47;;;;;;;23.90;6.72;;;;;;;10.01;49.34;100932.97;5035710;28;20032;-56
2021/12/03 03:20:13;;;;;;;19.00;7.22;;;;;;;10.01;49.41;100923.13;5035615;28;20021;-57
2021/12/03 03:22:39;;;;;;;19.75;6.97;;;;;;;10.08;49.59;100927.00;5035161;28;20049;-56
2021/12/03 03:25:07;;;;;;;18.42;7.30;;;;;;;10.10;49.43;100925.06;5035311;28;20033;-57
2021/12/03 03:27:33;;;;;;;19.17;6.68;;;;;;;10.14;49.84;100928.34;5035507;28;20154;-57
2021/12/03 03:30:00;;;;;;;17.65;7.25;;;;;;;10.16;49.13;100931.78;5039101;28;20037;-57
2021/12/03 03:32:25;;;;;;;20.15;7.68;;;;;;;10.17;48.89;100934.31;5035428;28;20045;-57
2021/12/03 03:34:51;;;;;;;20.27;10.05;;;;;;;10.17;48.78;100923.63;5034246;28;20111;-57
2021/12/03 03:37:18;;;;;;;18.63;8.32;;;;;;;10.21;49.47;100930.44;5035223;28;20049;-57
2021/12/03 03:39:44;;;;;;;16.55;7.63;;;;;;;10.22;49.36;100926.75;5035959;28;20033;-57
2021/12/03 03:42:10;;;;;;;17.40;7.28;;;;;;;10.23;49.13;100928.47;5035194;28;20037;-57
2021/12/03 03:44:35;;;;;;;21.40;8.77;;;;;;;10.24;49.20;100913.28;5035374;28;20029;-56
2021/12/03 03:47:01;;;;;;;20.75;8.50;;;;;;;10.26;49.22;100917.53;5034190;28;20017;-57
2021/12/03 03:49:27;;;;;;;22.92;8.07;;;;;;;10.28;49.37;100920.06;5035145;28;20021;-57
2021/12/03 03:51:53;;;;;;;20.05;8.75;;;;;;;10.28;49.40;100920.06;5033950;28;20025;-57
2021/12/03 03:54:18;;;;;;;21.98;8.75;;;;;;;10.27;49.17;100923.72;5050644;28;20031;-57
2021/12/03 03:56:45;;;;;;;22.08;8.13;;;;;;;10.27;49.57;100918.38;5053834;28;20049;-57
2021/12/03 03:59:10;;;;;;;18.05;7.72;;;;;;;10.29;49.15;100924.44;5055169;28;20024;-57
2021/12/03 04:01:36;;;;;;;20.27;7.85;;;;;;;10.30;49.11;100920.81;5054808;28;20029;-57
2021/12/03 04:04:01;;;;;;;20.60;7.30;;;;;;;10.31;49.11;100922.50;5055023;28;20025;-56
2021/12/03 04:06:27;;;;;;;18.55;7.63;;;;;;;10.27;49.28;100913.03;5054963;28;20036;-57
2021/12/03 04:08:52;;;;;;;18.65;7.82;;;;;;;10.25;49.03;100914.94;5054449;28;20108;-56
2021/12/03 04:11:20;;;;;;;16.92;7.22;;;;;;;10.24;49.53;100908.78;5054704;28;20025;-57
2021/12/03 04:13:46;;;;;;;21.73;7.65;;;;;;;10.27;49.93;100913.84;5054988;28;20543;-57
2021/12/03 04:16:12;;;;;;;26.38;7.38;;;;;;;10.25;49.27;100901.56;5043986;28;20029;-57
2021/12/03 04:18:37;;;;;;;15.18;6.82;;;;;;;10.26;49.31;100916.66;5033474;28;20497;-57
2021/12/03 04:21:03;;;;;;;18.48;7.13;;;;;;;10.25;49.57;100921.16;5034629;28;20076;-57
2021/12/03 04:23:28;;;;;;;21.23;6.32;;;;;;;10.27;49.54;100907.66;5034406;28;20029;-57
2021/12/03 04:25:54;;;;;;;15.93;7.65;;;;;;;10.27;49.46;100907.66;5034423;28;20021;-57
2021/12/03 04:28:20;;;;;;;23.75;7.32;;;;;;;10.33;49.56;100915.19;5034438;28;20028;-57
2021/12/03 04:30:46;;;;;;;15.60;7.05;;;;;;;10.33;49.66;100905.31;5034457;28;20036;-57
2021/12/03 04:33:12;;;;;;;14.27;7.20;;;;;;;10.34;49.76;100900.81;5034241;28;20167;-57
2021/12/03 04:35:37;;;;;;;20.17;9.70;;;;;;;10.33;49.57;100896.47;5033793;28;20478;-57
2021/12/03 04:38:04;;;;;;;17.45;7.25;;;;;;;10.35;49.57;100894.50;5034196;28;20049;-57
2021/12/03 04:40:31;;;;;;;18.52;7.35;;;;;;;10.36;49.96;100890.81;5033027;28;20086;-57
2021/12/03 04:42:56;;;;;;;13.32;6.63;;;;;;;10.38;49.57;100884.41;5034154;28;20021;-57
2021/12/03 04:45:24;;;;;;;19.58;6.47;;;;;;;10.40;49.73;100882.44;5034277;28;20033;-57
2021/12/03 04:47:51;;;;;;;18.23;6.28;;;;;;;10.42;49.50;100887.66;5034214;28;20031;-57
2021/12/03 04:50:17;;;;;;;19.42;6.93;;;;;;;10.41;49.63;100888.66;5032855;28;20478;-57
2021/12/03 04:52:43;;;;;;;18.70;6.68;;;;;;;10.39;49.45;100882.53;5033926;28;20073;-57
2021/12/03 04:55:10;;;;;;;15.43;6.53;;;;;;;10.39;49.58;100879.88;5033852;28;20100;-57
2021/12/03 04:57:35;;;;;;;14.27;5.70;;;;;;;10.40;49.65;100893.16;5034340;28;20370;-57
2021/12/03 05:00:04;;;;;;;17.13;6.90;;;;;;;10.42;49.78;100895.69;5032468;28;20029;-57
2021/12/03 05:02:29;;;;;;;17.48;6.55;;;;;;;10.39;49.64;100895.94;5032664;28;20018;-57
2021/12/03 05:04:59;;;;;;;15.45;5.15;;;;;;;10.41;49.60;100888.66;5034002;28;20107;-57
2021/12/03 05:07:31;;;;;;;20.48;5.15;;;;;;;10.45;49.76;100900.78;5034007;28;20025;-56
2021/12/03 05:09:57;;;;;;;11.52;5.07;;;;;;;10.44;48.84;100904.47;5034443;28;20025;-57
2021/12/03 05:12:23;;;;;;;14.35;5.10;;;;;;;10.46;49.76;100898.00;5032628;28;20021;-57
2021/12/03 05:14:48;;;;;;;13.30;5.53;;;;;;;10.46;49.68;100902.50;5032522;28;20083;-57
2021/12/03 05:17:13;;;;;;;10.40;5.03;;;;;;;10.47;49.47;100906.84;5033609;28;20056;-57
2021/12/03 05:19:39;;;;;;;16.92;6.15;;;;;;;10.47;49.67;100905.03;5033594;28;20029;-57
2021/12/03 05:22:04;;;;;;;17.73;5.68;;;;;;;10.47;49.33;100905.03;5033599;28;20104;-57
2021/12/03 05:24:30;;;;;;;12.57;4.82;;;;;;;10.47;49.67;100909.53;5032350;28;20045;-57
2021/12/03 05:26:55;;;;;;;6.43;4.43;;;;;;;10.45;49.61;100911.50;5033534;28;20492;-57
2021/12/03 05:29:21;;;;;;;9.55;5.25;;;;;;;10.44;49.25;100912.50;5016089;28;20033;-57
2021/12/03 05:31:46;;;;;;;15.73;4.20;;;;;;;10.43;49.57;100902.75;5032583;28;20036;-57
2021/12/03 05:34:13;;;;;;;10.82;4.47;;;;;;;10.42;49.56;100898.34;5032439;28;20021;-56
2021/12/03 05:36:39;;;;;;;11.85;4.40;;;;;;;10.41;49.04;100899.34;5033375;28;20449;-56
2021/12/03 05:39:05;;;;;;;11.13;4.50;;;;;;;10.43;49.41;100900.06;5033569;28;20053;-57
2021/12/03 05:41:30;;;;;;;12.88;4.68;;;;;;;10.42;49.37;100901.03;5032301;28;20029;-57
2021/12/03 05:43:56;;;;;;;18.08;4.22;;;;;;;10.42;49.26;100899.22;5033391;28;20025;-57
2021/12/03 05:46:21;;;;;;;12.63;3.58;;;;;;;10.40;49.77;100900.31;5036281;28;20033;-57
2021/12/03 05:48:47;;;;;;;12.32;3.58;;;;;;;10.41;49.49;100910.06;5036086;28;20071;-57
2021/12/03 05:51:12;;;;;;;14.10;4.47;;;;;;;10.41;49.47;100910.06;5037575;28;20109;-57
2021/12/03 05:53:37;;;;;;;12.80;4.43;;;;;;;10.40;49.41;100905.69;5037390;28;20021;-57
2021/12/03 05:56:03;;;;;;;13.88;3.60;;;;;;;10.34;49.36;100901.69;5019944;28;20045;-57
2021/12/03 05:58:28;;;;;;;12.05;3.90;;;;;;;10.34;49.52;100908.84;5037586;28;20045;-57
2021/12/03 06:00:54;;;;;;;12.15;3.80;;;;;;;10.33;49.68;100915.19;5037425;28;20386;-57
2021/12/03 06:03:19;;;;;;;11.75;4.10;;;;;;;10.33;49.44;100912.53;5037158;28;20029;-57
2021/12/03 06:05:45;;;;;;;10.43;4.03;;;;;;;10.31;49.62;100914.47;5037004;28;20025;-57
2021/12/03 06:08:10;;;;;;;12.77;3.72;;;;;;;10.29;49.37;100921.78;5037155;28;20091;-57
2021/12/03 06:10:36;;;;;;;14.60;4.38;;;;;;;10.28;49.25;100909.34;5037105;28;20428;-57
2021/12/03 06:13:02;;;;;;;7.47;2.90;;;;;;;10.32;49.73;100897.44;5019468;28;20018;-57
2021/12/03 06:15:28;;;;;;;10.70;3.38;;;;;;;10.33;49.78;100901.81;5035755;28;20021;-57
2021/12/03 06:17:53;;;;;;;8.05;3.25;;;;;;;10.32;49.51;100900.97;5037059;28;20037;-57
2021/12/03 06:20:19;;;;;;;12.13;3.45;;;;;;;10.32;49.60;100894.75;5036887;28;20116;-57
2021/12/03 06:22:45;;;;;;;8.05;3.67;;;;;;;10.33;49.14;100891.09;5036612;28;20036;-57
2021/12/03 06:25:12;;;;;;;13.95;3.25;;;;;;;10.31;49.93;100898.38;5036501;28;20474;-57
2021/12/03 06:27:38;;;;;;;11.18;3.45;;;;;;;10.31;49.04;100909.09;5036603;28;20525;-57
2021/12/03 06:30:10;;;;;;;10.80;3.92;;;;;;;10.30;49.15;100894.03;5036587;28;20079;-57
2021/12/03 06:32:36;;;;;;;12.20;3.60;;;;;;;10.28;49.02;100904.00;5036621;28;20079;-57
2021/12/03 06:35:02;;;;;;;10.77;3.58;;;;;;;10.29;49.16;100903.03;5036596;28;20025;-57
2021/12/03 06:37:28;;;;;;;13.85;3.35;;;;;;;10.28;49.20;100898.63;5036100;28;20054;-57
2021/12/03 06:39:53;;;;;;;23.60;4.00;;;;;;;10.26;48.81;100905.94;5035467;28;20095;-57
2021/12/03 06:42:19;;;;;;;9.82;2.65;;;;;;;10.25;48.94;100893.53;5035320;28;20109;-57
2021/12/03 06:44:44;;;;;;;10.50;3.58;;;;;;;10.27;49.65;100894.28;5036691;28;20090;-57
2021/12/03 06:47:10;;;;;;;8.38;3.63;;;;;;;10.27;49.12;100891.59;5036351;28;20078;-57
2021/12/03 06:49:35;;;;;;;12.40;3.50;;;;;;;10.25;48.71;100898.88;5036365;28;20040;-57
2021/12/03 06:52:06;;;;;;;9.63;3.50;;;;;;;10.25;48.97;100893.53;5036358;28;20030;-57
2021/12/03 06:54:33;;;;;;;11.45;3.75;;;;;;;10.23;48.65;100888.31;5036389;28;20482;-62
2021/12/03 06:57:00;;;;;;;11.02;3.30;;;;;;;10.27;49.26;100905.00;5043969;28;20035;-56
2021/12/03 06:59:25;;;;;;;15.80;3.88;;;;;;;10.30;49.27;100902.88;5055997;28;20032;-56
2021/12/03 07:01:51;;;;;;;6.97;3.53;;;;;;;10.31;48.92;100901.06;5045282;28;20035;-57
2021/12/03 07:04:17;;;;;;;15.85;3.45;;;;;;;10.30;48.78;100897.53;5041877;28;20496;-57
2021/12/03 07:06:43;;;;;;;8.50;4.18;;;;;;;10.30;48.80;100894.84;5054774;28;20119;-57
2021/12/03 07:09:08;;;;;;;21.45;3.70;;;;;;;10.31;49.08;100891.22;5056104;28;20083;-57
2021/12/03 07:11:33;;;;;;;6.85;2.85;;;;;;;10.31;49.01;100895.72;5055874;28;20029;-57
2021/12/03 07:13:59;;;;;;;17.10;3.90;;;;;;;10.30;48.58;100894.03;5055937;28;20041;-57
2021/12/03 07:16:24;;;;;;;6.50;3.20;;;;;;;10.29;49.48;100885.16;5055779;28;20032;-57
2021/12/03 07:18:50;;;;;;;16.15;3.67;;;;;;;10.29;49.19;100873.59;5054715;28;20029;-57
2021/12/03 07:21:15;;;;;;;9.55;3.33;;;;;;;10.33;48.81;100881.22;5055634;28;20035;-57
2021/12/03 07:23:41;;;;;;;10.23;3.50;;;;;;;10.32;48.99;100881.38;5055770;28;20108;-57
2021/12/03 07:26:06;;;;;;;7.13;3.42;;;;;;;10.34;49.17;100896.31;5055666;28;20032;-59
2021/12/03 07:28:32;;;;;;;15.15;5.63;;;;;;;10.35;48.97;100894.50;5054510;28;20021;-57
2021/12/03 07:30:58;;;;;;;16.17;3.70;;;;;;;10.34;48.72;100893.66;5055658;28;20033;-57
2021/12/03 07:33:23;;;;;;;17.48;3.08;;;;;;;10.33;48.41;100891.09;5054289;28;20163;-57
2021/12/03 07:35:49;;;;;;;13.90;3.30;;;;;;;10.26;48.75;100879.19;5036088;28;20513;-57
2021/12/03 07:38:17;;;;;;;10.18;2.65;;;;;;;10.28;48.88;100882.56;5035413;28;20398;-56
2021/12/03 07:40:46;;;;;;;17.30;2.90;;;;;;;10.26;49.10;100879.19;5035339;28;20029;-57
2021/12/03 07:43:11;;;;;;;8.93;2.50;;;;;;;10.28;48.77;100885.25;5035502;28;20033;-57
2021/12/03 07:45:37;;;;;;;6.63;2.55;;;;;;;10.29;48.87;100868.22;5035319;28;20108;-57
2021/12/03 07:48:04;;;;;;;8.88;2.58;;;;;;;10.32;48.96;100870.66;5035267;28;20047;-57
2021/12/03 07:50:33;;;;;;;10.32;2.90;;;;;;;10.33;48.85;100869.69;5035299;28;20062;-57
2021/12/03 07:52:58;;;;;;;8.18;2.90;;;;;;;10.35;48.17;100862.38;5034311;28;20433;-57
2021/12/03 07:55:24;;;;;;;12.65;3.45;;;;;;;10.39;48.71;100871.84;5034989;28;20083;-57
2021/12/03 07:57:49;;;;;;;9.48;3.00;;;;;;;10.39;48.45;100870.00;5035103;28;20034;-57
2021/12/03 08:00:15;;;;;;;9.00;3.28;;;;;;;10.40;48.75;100879.75;5034876;28;20048;-57
2021/12/03 08:02:40;;;;;;;8.65;3.55;;;;;;;10.43;48.73;100886.69;5035266;28;20125;-57
2021/12/03 08:05:06;;;;;;;8.30;2.55;;;;;;;10.42;48.73;100880.47;5048277;28;20478;-57
2021/12/03 08:07:31;;;;;;;13.10;3.50;;;;;;;10.51;48.70;100890.44;5054903;28;20029;-57
2021/12/03 08:09:57;;;;;;;11.85;3.53;;;;;;;10.57;48.48;100889.06;5044446;28;20421;-57
2021/12/03 08:12:22;;;;;;;10.73;3.40;;;;;;;10.64;48.63;100898.28;5034784;28;20030;-57
2021/12/03 08:14:48;;;;;;;7.53;3.30;;;;;;;10.68;48.54;100896.19;5034776;28;20394;-57
2021/12/03 08:17:13;;;;;;;10.45;4.13;;;;;;;10.69;48.51;100904.09;5034879;28;20033;-57
2021/12/03 08:19:38;;;;;;;6.90;3.50;;;;;;;10.70;48.42;100895.09;5050526;28;20041;-58
2021/12/03 08:22:04;;;;;;;9.93;2.67;;;;;;;10.74;48.15;100884.97;5053931;28;20435;-57
2021/12/03 08:24:29;;;;;;;10.63;3.60;;;;;;;10.78;48.63;100881.03;5054295;28;20037;-57
2021/12/03 08:26:55;;;;;;;13.02;4.18;;;;;;;10.82;48.67;100879.81;5052986;28;20044;-57
2021/12/03 08:29:20;;;;;;;12.30;3.10;;;;;;;10.84;48.39;100873.34;5054425;28;20029;-57
2021/12/03 08:31:45;;;;;;;8.57;2.75;;;;;;;10.86;48.15;100868.69;5053079;28;20037;-57
2021/12/03 08:34:11;;;;;;;9.25;3.10;;;;;;;10.90;48.51;100880.88;5053056;28;20120;-57
2021/12/03 08:36:36;;;;;;;7.75;3.25;;;;;;;10.89;48.64;100865.75;5053604;28;20071;-57
2021/12/03 08:39:03;;;;;;;10.57;3.55;;;;;;;10.86;48.02;100851.81;5053974;28;20092;-57
2021/12/03 08:41:29;;;;;;;10.10;2.65;;;;;;;10.87;48.09;100858.84;5054658;28;20497;-57
2021/12/03 08:43:54;;;;;;;13.63;2.97;;;;;;;10.85;48.29;100861.66;5054234;28;20021;-57
2021/12/03 08:48:49;;;;;;;10.80;3.67;;;;;;;10.90;48.20;100858.59;5054473;28;20032;-57
2021/12/03 08:56:27;;;;;;;11.38;4.55;;;;;;;10.86;48.11;100863.34;5053999;28;20082;-57
2021/12/03 08:58:52;;;;;;;9.65;2.35;;;;;;;10.87;47.99;100861.53;5053889;28;20021;-57
2021/12/03 09:01:17;;;;;;;10.50;3.63;;;;;;;10.93;48.00;100861.84;5052538;28;20032;-57
2021/12/03 09:03:43;;;;;;;6.55;2.53;;;;;;;10.94;48.23;100850.13;5053762;28;20071;-57
2021/12/03 09:06:08;;;;;;;10.43;2.53;;;;;;;10.99;48.06;100852.44;5053865;28;20460;-57
2021/12/03 09:08:34;;;;;;;10.15;2.92;;;;;;;11.00;48.13;100859.47;5053744;28;20032;-57
2021/12/03 09:10:59;;;;;;;14.00;2.72;;;;;;;10.98;47.94;100846.22;5054064;28;20052;-57
2021/12/03 09:13:25;;;;;;;17.33;3.75;;;;;;;11.01;48.08;100850.47;5053725;28;20107;-57
2021/12/03 09:16:18;;;;;;;5.93;2.55;;;;;;;10.97;47.81;100844.53;5053549;28;20031;-57
2021/12/03 09:18:39;;;;;;;7.38;2.03;;;;;;;11.01;47.97;100845.97;5053342;28;20036;-57
2021/12/03 09:26:05;;;;;;;8.68;2.60;;;;;;;11.19;48.04;100848.91;5053659;28;20036;-57
2021/12/03 09:28:31;;;;;;;8.13;2.72;;;;;;;11.28;47.82;100852.63;5053586;28;20021;-57
2021/12/03 09:30:57;;;;;;;6.95;1.85;;;;;;;11.33;48.26;100851.25;5053476;28;20112;-57
2021/12/03 09:33:26;;;;;;;10.20;2.13;;;;;;;11.34;47.66;100846.69;5052206;28;20033;-56
2021/12/03 09:35:55;;;;;;;14.35;2.42;;;;;;;11.38;48.08;100848.16;5053210;28;20474;-57
2021/12/03 09:38:21;;;;;;;10.48;2.33;;;;;;;11.41;47.66;100842.53;5052816;28;20048;-57
2021/12/03 09:40:46;;;;;;;7.78;2.65;;;;;;;11.50;47.96;100855.13;5051827;28;20116;-57
2021/12/03 09:43:12;;;;;;;4.88;2.20;;;;;;;11.55;47.21;100860.94;5053053;28;20025;-57
2021/12/03 09:45:40;;;;;;;11.63;2.58;;;;;;;11.55;47.75;100866.31;5053261;28;20562;-57
2021/12/03 09:48:18;;;;;;;9.25;2.42;;;;;;;11.52;47.90;100871.94;5053156;28;20025;-57
2021/12/03 09:50:44;;;;;;;10.00;2.58;;;;;;;11.55;47.40;100880.56;5052270;28;20033;-57
2021/12/03 09:55:47;;;;;;;8.23;2.42;;;;;;;11.51;48.12;100859.50;5053529;28;20083;-57
2021/12/03 09:58:42;;;;;;;9.07;3.20;;;;;;;11.52;47.63;100845.97;5051982;28;20428;-57
2021/12/03 10:01:15;;;;;;;8.52;2.10;;;;;;;11.52;47.74;100829.00;5052777;28;20082;-57
2021/12/03 10:03:55;;;;;;;11.82;2.78;;;;;;;11.57;48.19;100826.75;5052964;28;20040;-57
2021/12/03 10:12:43;;;;;;;10.98;3.03;;;;;;;11.67;47.27;100811.53;5053154;28;20025;-56
2021/12/03 10:15:22;;;;;;;12.30;2.45;;;;;;;11.65;47.03;100809.00;5053366;28;20497;-57
2021/12/03 10:34:20;;;;;;;5.85;2.53;;;;;;;12.24;47.62;100795.59;5056121;28;20031;-56
2021/12/03 10:42:22;;;;;;;8.63;2.92;;;;;;;12.24;47.67;100768.72;5056664;28;20037;-57
2021/12/03 10:45:11;;;;;;;8.25;3.08;;;;;;;12.28;47.38;100758.56;5055570;28;20036;-57
2021/12/03 10:47:54;;;;;;;9.02;2.63;;;;;;;12.30;46.80;100756.56;5056473;28;20025;-57
2021/12/03 11:15:42;;;;;;;5.82;3.30;;;;;;;12.37;47.40;100697.78;5056201;28;20112;-57
2021/12/03 11:18:18;;;;;;;7.20;2.78;;;;;;;12.38;47.39;100688.69;5055561;28;20025;-58
2021/12/03 11:36:55;;;;;;;6.95;2.63;;;;;;;12.78;46.82;100659.75;5054637;28;20103;-57
2021/12/03 11:39:35;;;;;;;5.90;2.65;;;;;;;12.77;46.70;100653.53;5048675;28;20115;-57
2021/12/03 14:02:34;;;;;;;6.97;1.65;;;;;;;12.68;46.06;100422.44;5032454;28;19909;-57
2021/12/03 14:53:39;;;;;;;3.88;1.60;;;;;;;12.08;47.02;100403.34;5036595;28;20049;-57
2021/12/03 14:56:12;;;;;;;6.03;1.58;;;;;;;12.07;46.57;100396.25;5020038;28;20040;-57
2021/12/03 14:58:55;;;;;;;4.10;1.27;;;;;;;12.03;47.39;100400.22;5036721;28;20033;-57
2021/12/03 15:01:27;;;;;;;6.55;2.10;;;;;;;12.01;47.07;100393.31;5036374;28;20030;-57
2021/12/03 15:07:23;;;;;;;2.97;1.83;;;;;;;11.95;47.23;100384.03;5030088;28;20041;-57
2021/12/03 15:09:45;;;;;;;6.63;1.45;;;;;;;11.96;47.27;100398.28;5049269;28;20028;-57
2021/12/03 15:28:20;;;;;;;3.08;1.10;;;;;;;12.02;47.14;100376.22;5036130;28;20026;-58
2021/12/03 15:30:54;;;;;;;6.97;1.20;;;;;;;12.05;46.83;100366.03;5035819;28;20025;-58
2021/12/03 16:05:01;;;;;;;1.90;1.20;;;;;;;12.11;47.02;100349.34;5034934;28;20441;-57
2021/12/03 16:07:56;;;;;;;2.20;1.27;;;;;;;12.06;47.27;100340.88;5034918;28;20500;-58
2021/12/03 16:10:26;;;;;;;1.25;0.93;;;;;;;12.14;47.18;100343.63;5034757;28;20034;-58
2021/12/03 16:52:52;;;;;;;1.85;1.02;;;;;;;11.98;47.29;100295.16;5033954;28;20109;-57
2021/12/03 16:55:18;;;;;;;2.63;0.88;;;;;;;12.02;47.32;100306.44;5034173;28;20029;-57
2021/12/03 16:57:46;;;;;;;2.33;1.33;;;;;;;11.98;48.00;100295.16;5034496;28;20029;-58
2021/12/03 17:00:25;;;;;;;1.20;0.55;;;;;;;11.96;47.76;100315.09;5034558;28;20037;-58
2021/12/03 17:06:06;;;;;;;1.20;0.70;;;;;;;11.94;47.77;100292.94;5033999;28;20478;-58
2021/12/03 17:13:46;;;;;;;2.30;0.50;;;;;;;11.91;47.82;100299.44;5034092;28;20033;-58
2021/12/03 17:56:20;;;;;;;0.47;0.40;;;;;;;11.89;47.88;100220.91;5037451;28;20029;-58
2021/12/03 17:58:52;;;;;;;0.75;0.40;;;;;;;11.93;47.76;100226.81;5036515;28;20124;-58
2021/12/03 18:01:27;;;;;;;1.45;1.13;;;;;;;11.90;47.87;100211.03;5037590;28;20033;-58
2021/12/03 18:49:01;;;;;;;0.60;0.57;;;;;;;12.04;47.64;100164.84;5036837;28;20453;-58
2021/12/03 18:51:43;;;;;;;0.88;0.60;;;;;;;12.04;47.82;100154.13;5036561;28;20052;-58
2021/12/03 18:54:25;;;;;;;0.63;0.63;;;;;;;11.96;48.33;100141.47;5035532;28;20030;-57
2021/12/03 18:56:55;;;;;;;1.13;0.77;;;;;;;12.10;47.98;100151.66;5036531;28;20175;-59
2021/12/03 18:59:23;;;;;;;1.77;0.93;;;;;;;12.10;48.12;100148.97;5035309;28;20029;-58